Time;durP1;ratioP1;P1;durP2;ratioP2;P2;SDS_P1;SDS_P2;PMS_P1;PMS_P2;Temp;Humidity;BMP_temperature;BMP_pressure;BME280_temperature;BME280_humidity;BME280_pressure;Samples;Min_cycle;Max_cycle;Signal;HPM_P1;HPM_P2
2021/04/14 00:01:52;;;;;;;5.90;3.80;;;2.20;99.90;;;;;;5030933;28;20731;-64
2021/04/14 00:04:18;;;;;;;4.97;4.17;;;2.10;99.90;;;;;;5032308;28;20171;-65
2021/04/14 00:06:44;;;;;;;5.33;3.97;;;2.10;99.90;;;;;;5013690;28;20745;-64
2021/04/14 00:09:09;;;;;;;6.73;3.97;;;2.00;99.90;;;;;;5013909;28;20184;-65
2021/04/14 00:11:36;;;;;;;6.33;4.00;;;2.00;99.90;;;;;;5031743;28;20251;-64
2021/04/14 00:14:03;;;;;;;5.10;3.70;;;2.00;99.90;;;;;;5031282;28;20175;-65
2021/04/14 00:16:29;;;;;;;6.40;3.90;;;1.90;99.90;;;;;;5021449;28;20660;-65
2021/04/14 00:18:55;;;;;;;6.27;4.10;;;1.90;99.90;;;;;;5031929;28;20164;-64
2021/04/14 00:21:23;;;;;;;9.00;4.33;;;1.90;99.90;;;;;;5013271;28;20175;-64
2021/04/14 00:23:49;;;;;;;7.20;3.97;;;1.80;99.90;;;;;;5011942;28;20180;-64
2021/04/14 00:26:16;;;;;;;7.77;4.43;;;1.80;99.90;;;;;;5028758;28;20258;-64
2021/04/14 00:28:42;;;;;;;7.17;4.53;;;1.70;99.90;;;;;;5031710;28;20187;-64
2021/04/14 00:31:08;;;;;;;4.97;4.00;;;1.70;99.90;;;;;;5015895;28;20555;-64
2021/04/14 00:33:34;;;;;;;6.23;4.60;;;1.70;99.90;;;;;;5013241;28;20219;-64
2021/04/14 00:36:00;;;;;;;4.00;3.63;;;1.60;99.90;;;;;;5024949;28;20210;-65
2021/04/14 00:38:26;;;;;;;5.43;3.93;;;1.60;99.90;;;;;;5028681;28;20203;-64
2021/04/14 00:41:01;;;;;;;7.67;4.67;;;1.60;99.90;;;;;;5011531;28;20169;-65
2021/04/14 00:43:29;;;;;;;5.30;4.77;;;1.60;99.90;;;;;;5013923;28;20222;-64
2021/04/14 00:45:56;;;;;;;5.77;4.30;;;1.60;99.90;;;;;;5031334;28;20179;-65
2021/04/14 00:48:22;;;;;;;10.40;4.80;;;1.60;99.90;;;;;;5030614;28;20255;-64
2021/04/14 00:50:48;;;;;;;7.73;4.57;;;1.60;99.90;;;;;;5011468;28;20218;-64
2021/04/14 00:53:14;;;;;;;9.23;4.50;;;1.60;99.90;;;;;;5018170;28;20716;-64
2021/04/14 00:55:41;;;;;;;6.67;4.33;;;1.60;99.90;;;;;;5031481;28;20707;-65
2021/04/14 00:58:08;;;;;;;6.43;4.47;;;1.50;99.90;;;;;;5026175;28;20239;-65
2021/04/14 01:00:45;;;;;;;9.73;4.83;;;1.50;99.90;;;;;;5011464;28;20175;-65
2021/04/14 01:03:35;;;;;;;6.40;4.80;;;1.40;99.90;;;;;;5016798;28;20171;-65
2021/04/14 01:06:10;;;;;;;6.20;5.07;;;1.40;99.90;;;;;;5031720;28;20171;-64
2021/04/14 01:08:36;;;;;;;9.17;4.97;;;1.40;99.90;;;;;;5029687;28;20209;-64
2021/04/14 01:11:06;;;;;;;6.57;5.00;;;1.30;99.90;;;;;;5016037;28;20184;-64
2021/04/14 01:13:32;;;;;;;8.87;5.20;;;1.30;99.90;;;;;;5011643;28;20183;-64
2021/04/14 01:15:58;;;;;;;8.70;4.93;;;1.20;99.90;;;;;;5024794;28;20219;-64
2021/04/14 01:18:27;;;;;;;8.33;4.53;;;1.20;99.90;;;;;;5034061;28;20688;-64
2021/04/14 01:20:55;;;;;;;7.53;4.50;;;1.20;99.90;;;;;;5020882;28;20237;-64
2021/04/14 01:23:22;;;;;;;8.07;5.00;;;1.20;99.90;;;;;;5015523;28;20164;-64
2021/04/14 01:25:48;;;;;;;12.30;6.37;;;1.10;99.90;;;;;;5026289;28;20183;-65
2021/04/14 01:28:21;;;;;;;10.90;5.77;;;1.00;99.90;;;;;;5035320;28;20309;-64
2021/04/14 01:30:47;;;;;;;5.87;5.13;;;0.90;99.90;;;;;;5023962;28;20553;-64
2021/04/14 01:33:14;;;;;;;8.57;5.27;;;0.90;99.90;;;;;;5015472;28;20254;-63
2021/04/14 01:35:40;;;;;;;8.93;5.60;;;0.90;99.90;;;;;;5017635;28;20196;-64
2021/04/14 01:38:06;;;;;;;8.10;5.40;;;0.80;99.90;;;;;;5014993;28;20191;-64
2021/04/14 01:40:33;;;;;;;7.97;5.50;;;0.80;99.90;;;;;;5032218;28;20175;-64
2021/04/14 01:42:59;;;;;;;9.37;5.40;;;0.80;99.90;;;;;;5034833;28;20163;-64
2021/04/14 01:45:29;;;;;;;11.90;5.80;;;0.80;99.90;;;;;;5018674;28;20521;-63
2021/04/14 01:47:55;;;;;;;8.40;5.10;;;0.60;99.90;;;;;;5015039;28;20224;-64
2021/04/14 01:50:20;;;;;;;8.50;5.33;;;0.70;99.90;;;;;;5028298;28;20226;-64
2021/04/14 01:52:46;;;;;;;8.53;5.07;;;0.70;99.90;;;;;;5033982;28;20199;-65
2021/04/14 01:55:13;;;;;;;5.90;5.00;;;0.60;99.90;;;;;;5014918;28;20756;-65
2021/04/14 01:57:39;;;;;;;7.30;4.77;;;0.60;99.90;;;;;;5014675;28;20196;-65
2021/04/14 02:00:15;;;;;;;9.37;5.27;;;0.60;99.90;;;;;;5032737;28;20211;-65
2021/04/14 02:02:41;;;;;;;6.40;4.70;;;0.60;99.90;;;;;;5034520;28;20254;-65
2021/04/14 02:05:07;;;;;;;6.50;5.77;;;0.70;99.90;;;;;;5016032;28;20267;-64
2021/04/14 02:07:33;;;;;;;12.10;5.60;;;0.70;99.90;;;;;;5015059;28;20215;-64
2021/04/14 02:09:59;;;;;;;7.47;5.37;;;0.60;99.90;;;;;;5030731;28;20187;-64
2021/04/14 02:12:24;;;;;;;11.20;5.60;;;0.60;99.90;;;;;;5034551;28;20699;-64
2021/04/14 02:14:50;;;;;;;9.83;5.70;;;0.60;99.90;;;;;;5018705;28;20583;-64
2021/04/14 02:17:15;;;;;;;6.97;5.67;;;0.60;99.90;;;;;;5014262;28;20257;-64
2021/04/14 02:19:41;;;;;;;8.43;6.00;;;0.60;99.90;;;;;;5027328;28;20254;-65
2021/04/14 02:22:07;;;;;;;8.47;5.37;;;0.50;99.90;;;;;;5029306;28;20187;-64
2021/04/14 02:24:32;;;;;;;6.20;5.03;;;0.50;99.90;;;;;;5032773;28;20273;-64
2021/04/14 02:26:58;;;;;;;23.57;6.00;;;0.50;99.90;;;;;;5031207;28;20704;-64
2021/04/14 02:29:24;;;;;;;8.10;5.73;;;0.40;99.90;;;;;;5013518;28;20196;-65
2021/04/14 02:31:49;;;;;;;7.30;5.87;;;0.30;99.90;;;;;;5014394;28;20188;-65
2021/04/14 02:34:15;;;;;;;6.47;5.13;;;0.20;99.90;;;;;;5028739;28;20246;-63
2021/04/14 02:36:42;;;;;;;9.57;6.07;;;0.20;99.90;;;;;;5020064;28;20199;-64
2021/04/14 02:39:09;;;;;;;8.37;6.20;;;0.10;99.90;;;;;;5028302;28;20242;-64
2021/04/14 02:41:35;;;;;;;12.90;5.57;;;0.10;99.90;;;;;;5013675;28;20176;-64
2021/04/14 02:44:01;;;;;;;6.80;5.97;;;0.10;99.90;;;;;;5017084;28;20182;-64
2021/04/14 02:46:26;;;;;;;11.80;6.17;;;0.20;99.90;;;;;;5033696;28;20554;-64
2021/04/14 02:48:53;;;;;;;8.47;5.93;;;0.20;99.90;;;;;;5031197;28;20172;-64
2021/04/14 02:51:19;;;;;;;11.73;5.80;;;0.20;99.90;;;;;;5013563;28;20172;-65
2021/04/14 02:53:44;;;;;;;9.87;6.57;;;0.30;99.90;;;;;;5013380;28;20184;-64
2021/04/14 02:56:10;;;;;;;9.00;5.70;;;0.30;99.90;;;;;;5016609;28;20243;-64
2021/04/14 02:58:36;;;;;;;8.10;5.40;;;0.40;99.90;;;;;;5033336;28;20199;-65
2021/04/14 03:01:03;;;;;;;11.13;6.47;;;0.30;99.90;;;;;;5027112;28;20575;-64
2021/04/14 03:03:28;;;;;;;9.77;5.90;;;0.40;99.90;;;;;;5013772;28;20176;-64
2021/04/14 03:05:55;;;;;;;8.57;6.50;;;0.40;99.90;;;;;;5017182;28;20764;-65
2021/04/14 03:08:21;;;;;;;9.47;6.20;;;0.30;99.90;;;;;;5033281;28;20199;-64
2021/04/14 03:10:47;;;;;;;12.33;7.00;;;0.30;99.90;;;;;;5016390;28;20176;-64
2021/04/14 03:13:14;;;;;;;11.87;6.43;;;0.30;99.90;;;;;;5013338;28;20238;-64
2021/04/14 03:15:40;;;;;;;10.47;6.40;;;0.20;99.90;;;;;;5028027;28;20206;-62
2021/04/14 03:18:11;;;;;;;11.00;5.83;;;0.20;99.90;;;;;;5049707;22;20228;-71
2021/04/14 03:20:38;;;;;;;11.40;6.23;;;0.10;99.90;;;;;;5020036;28;20207;-66
2021/04/14 03:23:05;;;;;;;10.83;6.43;;;0.00;99.90;;;;;;5020375;28;20172;-68
2021/04/14 03:25:31;;;;;;;9.40;6.90;;;-0.10;99.90;;;;;;5020460;28;20592;-65
2021/04/14 03:28:02;;;;;;;11.17;6.53;;;-0.10;99.90;;;;;;5019469;28;20262;-69
2021/04/14 03:30:28;;;;;;;10.13;6.70;;;-0.10;99.90;;;;;;5019517;28;20207;-66
2021/04/14 03:32:54;;;;;;;13.23;7.10;;;-0.20;99.90;;;;;;5019923;28;20255;-69
2021/04/14 03:35:23;;;;;;;8.77;6.70;;;-0.30;99.90;;;;;;5019714;28;20294;-67
2021/04/14 03:37:49;;;;;;;9.43;6.70;;;-0.30;99.90;;;;;;5000520;28;20199;-67
2021/04/14 03:40:15;;;;;;;12.70;7.07;;;-0.40;99.90;;;;;;5012490;28;20180;-69
2021/04/14 03:42:41;;;;;;;11.40;7.50;;;-0.40;99.90;;;;;;5019799;28;20603;-66
2021/04/14 03:45:15;;;;;;;8.43;6.97;;;-0.30;99.90;;;;;;5020586;28;20274;-68
2021/04/14 03:47:41;;;;;;;11.37;7.40;;;-0.30;99.90;;;;;;5020954;28;20564;-68
2021/04/14 03:50:10;;;;;;;9.17;6.73;;;-0.20;99.90;;;;;;5020420;28;20176;-67
2021/04/14 03:52:36;;;;;;;9.87;7.03;;;-0.20;99.90;;;;;;5017986;28;20172;-67
2021/04/14 03:55:03;;;;;;;10.73;7.33;;;-0.10;99.90;;;;;;5015014;28;20238;-65
2021/04/14 03:57:29;;;;;;;10.63;8.03;;;-0.10;99.90;;;;;;5012545;28;20196;-65
2021/04/14 03:59:54;;;;;;;13.30;7.50;;;-0.30;99.90;;;;;;5012033;28;20183;-65
2021/04/14 04:02:20;;;;;;;13.23;7.57;;;-0.20;99.90;;;;;;5012466;28;20536;-64
2021/04/14 04:04:46;;;;;;;9.73;8.03;;;-0.20;99.90;;;;;;5012282;28;20195;-64
2021/04/14 04:07:11;;;;;;;15.90;8.60;;;-0.30;99.90;;;;;;5012569;28;20192;-64
2021/04/14 04:09:37;;;;;;;15.17;8.13;;;-0.30;99.90;;;;;;5012474;28;20634;-64
2021/04/14 04:12:07;;;;;;;12.40;8.30;;;-0.30;99.90;;;;;;5011843;28;20260;-64
2021/04/14 04:14:34;;;;;;;10.50;7.97;;;-0.20;99.90;;;;;;5012229;28;20228;-64
2021/04/14 04:17:00;;;;;;;14.70;8.40;;;-0.20;99.90;;;;;;5012118;28;20258;-64
2021/04/14 04:19:26;;;;;;;12.73;8.57;;;-0.10;99.90;;;;;;5010669;28;20175;-64
2021/04/14 04:21:51;;;;;;;11.73;8.30;;;0.00;99.90;;;;;;5011959;28;20172;-62
2021/04/14 04:24:17;;;;;;;15.80;9.00;;;0.00;99.90;;;;;;5011768;28;20263;-62
2021/04/14 04:26:43;;;;;;;12.23;8.43;;;0.10;99.90;;;;;;5012113;28;20206;-64
2021/04/14 04:29:08;;;;;;;15.40;8.13;;;0.20;99.90;;;;;;5011847;28;20176;-64
2021/04/14 04:31:34;;;;;;;12.10;8.30;;;0.20;99.90;;;;;;5011849;28;20172;-62
2021/04/14 04:33:59;;;;;;;16.10;8.27;;;0.20;99.90;;;;;;5011883;28;20187;-62
2021/04/14 04:36:25;;;;;;;12.63;7.93;;;0.30;99.90;;;;;;5012145;28;20195;-62
2021/04/14 04:38:51;;;;;;;12.20;8.23;;;0.40;99.90;;;;;;5011763;28;20200;-62
2021/04/14 04:41:17;;;;;;;12.53;8.43;;;0.40;99.90;;;;;;5011749;28;20176;-62
2021/04/14 04:43:43;;;;;;;9.77;7.23;;;0.50;99.90;;;;;;5011732;28;20180;-62
2021/04/14 04:46:09;;;;;;;13.10;7.17;;;0.60;99.90;;;;;;5011656;28;20665;-63
2021/04/14 04:48:34;;;;;;;9.73;7.03;;;0.60;99.90;;;;;;5010851;28;20212;-62
2021/04/14 04:51:00;;;;;;;11.90;7.03;;;0.70;99.90;;;;;;5011529;28;20180;-62
2021/04/14 04:53:26;;;;;;;11.33;8.33;;;0.70;99.90;;;;;;5011258;28;20184;-63
2021/04/14 04:55:53;;;;;;;10.43;8.07;;;0.70;99.90;;;;;;5011694;28;20203;-62
2021/04/14 04:58:19;;;;;;;10.77;8.17;;;0.70;99.90;;;;;;5011416;28;20287;-63
2021/04/14 05:00:46;;;;;;;12.20;8.43;;;0.70;99.90;;;;;;5011551;28;20249;-62
2021/04/14 05:03:14;;;;;;;9.47;7.00;;;0.70;99.90;;;;;;5010926;28;20181;-63
2021/04/14 05:05:41;;;;;;;8.43;6.47;;;0.80;99.90;;;;;;5011756;28;20179;-62
2021/04/14 05:08:09;;;;;;;9.83;6.70;;;0.80;99.90;;;;;;5011432;28;20200;-62
2021/04/14 05:10:35;;;;;;;13.07;7.30;;;0.80;99.90;;;;;;5011820;28;20188;-62
2021/04/14 05:13:02;;;;;;;11.27;7.40;;;0.90;99.90;;;;;;5011789;28;20172;-62
2021/04/14 05:15:31;;;;;;;10.20;6.97;;;0.90;99.90;;;;;;5011353;28;20204;-63
2021/04/14 05:17:56;;;;;;;13.73;7.20;;;1.00;99.90;;;;;;5011443;28;20243;-63
2021/04/14 05:20:22;;;;;;;9.47;6.97;;;1.20;99.90;;;;;;5010769;28;20271;-63
2021/04/14 05:22:48;;;;;;;9.93;6.77;;;1.30;99.90;;;;;;5011528;28;20665;-63
2021/04/14 05:25:17;;;;;;;8.57;6.23;;;1.40;99.90;;;;;;5011282;28;20188;-63
2021/04/14 05:27:43;;;;;;;12.07;7.00;;;1.60;99.90;;;;;;5010227;28;20192;-63
2021/04/14 05:30:11;;;;;;;11.10;6.47;;;1.70;99.90;;;;;;5010759;28;20263;-63
2021/04/14 05:32:37;;;;;;;6.80;5.43;;;1.90;99.90;;;;;;5012096;28;20649;-63
2021/04/14 05:35:04;;;;;;;11.47;6.50;;;2.00;99.90;;;;;;5011239;28;20207;-63
2021/04/14 05:37:29;;;;;;;11.87;7.13;;;2.10;99.90;;;;;;5011371;28;20192;-64
2021/04/14 05:39:55;;;;;;;9.83;5.67;;;2.30;99.90;;;;;;5011344;28;20291;-64
2021/04/14 05:42:21;;;;;;;7.20;5.80;;;2.40;99.90;;;;;;5009571;28;20654;-62
2021/04/14 05:44:47;;;;;;;9.87;5.50;;;2.50;99.90;;;;;;5009672;28;20318;-62
2021/04/14 05:47:13;;;;;;;5.67;4.73;;;2.60;99.90;;;;;;5011122;28;20278;-62
2021/04/14 05:49:38;;;;;;;5.77;5.17;;;2.70;99.90;;;;;;5010198;28;20218;-62
2021/04/14 05:52:04;;;;;;;4.90;4.50;;;2.80;99.90;;;;;;5010518;28;20267;-64
2021/04/14 05:54:30;;;;;;;10.80;4.83;;;2.90;99.90;;;;;;5010993;28;20199;-62
2021/04/14 05:56:57;;;;;;;7.63;5.77;;;3.10;99.90;;;;;;5010692;28;20177;-62
2021/04/14 05:59:23;;;;;;;7.10;5.23;;;3.20;99.90;;;;;;5011121;28;20496;-62
2021/04/14 06:01:48;;;;;;;10.80;6.30;;;3.30;99.90;;;;;;5010648;28;20649;-63
2021/04/14 06:04:16;;;;;;;7.47;5.30;;;3.40;99.90;;;;;;5011553;28;20204;-63
2021/04/14 06:06:42;;;;;;;9.20;5.03;;;3.60;99.90;;;;;;5014439;28;20175;-63
2021/04/14 06:09:09;;;;;;;8.73;5.17;;;3.80;99.90;;;;;;5014225;28;20255;-63
2021/04/14 06:11:36;;;;;;;11.07;5.40;;;4.10;99.90;;;;;;5014402;28;20207;-63
2021/04/14 06:14:04;;;;;;;8.17;4.97;;;4.20;99.90;;;;;;5011858;28;20637;-63
2021/04/14 06:16:30;;;;;;;8.53;4.83;;;4.60;99.90;;;;;;5014213;28;20215;-63
2021/04/14 06:18:55;;;;;;;7.40;4.07;;;4.90;99.90;;;;;;5013519;28;20212;-63
2021/04/14 06:21:23;;;;;;;9.77;4.77;;;5.30;99.90;;;;;;4994536;28;20666;-63
2021/04/14 06:23:51;;;;;;;7.23;4.30;;;5.60;99.90;;;;;;4994272;28;20634;-63
2021/04/14 06:28:45;;;;;;;5.83;4.17;;;6.10;99.90;;;;;;5000558;28;20290;-63
2021/04/14 06:31:12;;;;;;;7.10;4.33;;;6.40;99.90;;;;;;5014074;28;20218;-63
2021/04/14 06:33:40;;;;;;;7.73;4.23;;;6.70;99.90;;;;;;5014083;28;20180;-63
2021/04/14 06:36:07;;;;;;;4.90;4.17;;;6.90;99.90;;;;;;5013869;28;20650;-63
2021/04/14 06:38:35;;;;;;;5.93;4.17;;;7.10;99.90;;;;;;5014469;28;20262;-63
2021/04/14 06:44:01;;;;;;;9.73;5.53;;;7.20;99.90;;;;;;5013566;28;20647;-63
2021/04/14 06:46:32;;;;;;;8.83;4.30;;;7.50;99.90;;;;;;5013604;28;20171;-63
2021/04/14 06:49:38;;;;;;;8.10;4.73;;;7.90;99.90;;;;;;5013290;28;20211;-62
2021/04/14 06:52:19;;;;;;;4.70;3.80;;;8.30;99.90;;;;;;5012915;28;20171;-63
2021/04/14 06:54:52;;;;;;;10.20;4.17;;;9.00;99.90;;;;;;5013600;28;20575;-63
2021/04/14 06:57:22;;;;;;;7.00;4.80;;;9.70;99.90;;;;;;5013484;28;20200;-63
2021/04/14 06:59:54;;;;;;;4.70;4.17;;;10.20;99.90;;;;;;5013355;28;20203;-63
2021/04/14 07:02:37;;;;;;;8.37;4.53;;;10.50;99.90;;;;;;5013104;28;20186;-63
2021/04/14 07:05:09;;;;;;;6.83;4.47;;;10.60;99.90;;;;;;5013512;28;20597;-63
2021/04/14 07:07:37;;;;;;;6.63;4.93;;;10.10;99.90;;;;;;5012694;28;20200;-63
2021/04/14 07:10:22;;;;;;;9.23;4.33;;;9.90;99.90;;;;;;5013042;28;20558;-64
2021/04/14 07:12:50;;;;;;;10.27;4.60;;;10.10;99.90;;;;;;5014037;28;20525;-63
2021/04/14 07:15:18;;;;;;;8.53;4.57;;;10.30;99.90;;;;;;5012962;28;20234;-63
2021/04/14 07:18:05;;;;;;;8.47;4.30;;;10.50;99.90;;;;;;5012302;28;20210;-63
2021/04/14 07:21:06;;;;;;;9.90;4.50;;;10.70;99.90;;;;;;5012691;28;20194;-63
2021/04/14 07:23:39;;;;;;;8.90;4.60;;;11.30;99.90;;;;;;5013348;28;20248;-63
2021/04/14 07:26:28;;;;;;;6.17;4.63;;;11.60;99.90;;;;;;5012977;28;20254;-63
2021/04/14 07:29:15;;;;;;;9.53;4.80;;;11.50;99.90;;;;;;5012979;28;20725;-63
2021/04/14 07:31:45;;;;;;;7.40;4.60;;;11.80;99.90;;;;;;5012448;28;20188;-63
2021/04/14 07:34:25;;;;;;;6.07;4.27;;;12.30;99.90;;;;;;5013064;28;20270;-63
2021/04/14 07:37:00;;;;;;;5.57;4.23;;;12.60;99.90;;;;;;5012539;28;20742;-64
2021/04/14 07:39:42;;;;;;;6.07;4.50;;;12.90;99.90;;;;;;5013070;28;20168;-63
2021/04/14 07:42:08;;;;;;;6.53;4.60;;;13.10;99.90;;;;;;5012647;28;20190;-63
2021/04/14 07:44:50;;;;;;;6.57;4.20;;;13.00;99.90;;;;;;5012793;28;20633;-64
2021/04/14 07:47:18;;;;;;;9.17;5.17;;;12.70;99.90;;;;;;4993190;28;20227;-63
2021/04/14 07:49:43;;;;;;;10.87;4.90;;;11.90;99.90;;;;;;5010463;28;20267;-63
2021/04/14 07:52:13;;;;;;;5.87;4.70;;;11.70;99.90;;;;;;5012639;28;20267;-63
2021/04/14 07:54:50;;;;;;;6.93;5.00;;;11.40;99.90;;;;;;5012379;28;20196;-63
2021/04/14 07:57:36;;;;;;;8.40;4.70;;;10.80;99.90;;;;;;5012977;28;20684;-63
2021/04/14 08:00:35;;;;;;;10.90;5.37;;;10.30;99.90;;;;;;5011991;28;20179;-63
2021/04/14 08:03:24;;;;;;;11.30;5.40;;;10.20;99.90;;;;;;4998209;28;20184;-63
2021/04/14 08:05:50;;;;;;;8.23;5.30;;;10.00;99.90;;;;;;4992656;28;20177;-63
2021/04/14 08:08:22;;;;;;;5.63;4.33;;;9.80;99.90;;;;;;4996758;28;20253;-63
2021/04/14 08:11:02;;;;;;;8.50;5.27;;;9.70;99.90;;;;;;5012089;28;20172;-63
2021/04/14 08:13:36;;;;;;;12.53;6.03;;;10.00;99.90;;;;;;5012242;28;20506;-63
2021/04/14 08:16:38;;;;;;;8.67;4.67;;;10.20;99.90;;;;;;5012043;28;20211;-63
2021/04/14 08:19:22;;;;;;;7.97;5.30;;;10.30;99.90;;;;;;5010519;28;20273;-63
2021/04/14 08:22:03;;;;;;;9.47;4.77;;;10.30;99.90;;;;;;5011493;28;20168;-63
2021/04/14 08:24:33;;;;;;;6.93;4.63;;;10.00;99.90;;;;;;5012035;28;20631;-63
2021/04/14 08:27:03;;;;;;;5.73;4.53;;;9.70;99.90;;;;;;5011372;28;20200;-63
2021/04/14 08:29:29;;;;;;;8.87;5.23;;;9.40;99.90;;;;;;5012026;28;20173;-63
2021/04/14 08:31:57;;;;;;;7.00;4.97;;;9.00;99.90;;;;;;5011338;28;20183;-63
2021/04/14 08:34:33;;;;;;;11.83;5.87;;;8.70;99.90;;;;;;5011799;28;20637;-63
2021/04/14 08:37:18;;;;;;;10.37;5.60;;;8.30;99.90;;;;;;5011598;28;20204;-63
2021/04/14 08:39:54;;;;;;;11.47;6.23;;;8.20;99.90;;;;;;5011642;28;20215;-63
2021/04/14 08:42:19;;;;;;;19.67;7.17;;;8.20;99.90;;;;;;5011822;28;20168;-62
2021/04/14 08:44:48;;;;;;;9.17;6.57;;;8.40;99.90;;;;;;5011769;28;20176;-62
2021/04/14 08:47:34;;;;;;;11.70;5.97;;;8.60;99.90;;;;;;5012123;28;20228;-63
2021/04/14 08:50:08;;;;;;;10.47;6.00;;;9.10;99.90;;;;;;5011296;28;20195;-62
2021/04/14 08:52:40;;;;;;;8.90;5.77;;;9.50;99.90;;;;;;5011473;28;20176;-63
2021/04/14 08:55:08;;;;;;;8.07;5.73;;;9.80;99.90;;;;;;5011914;28;20196;-63
2021/04/14 08:57:33;;;;;;;8.03;5.30;;;10.30;99.90;;;;;;5009332;28;20204;-63
2021/04/14 08:59:59;;;;;;;8.97;5.37;;;10.80;99.90;;;;;;5021330;28;20530;-62
2021/04/14 09:02:25;;;;;;;13.57;6.00;;;11.10;99.90;;;;;;5012078;28;20174;-63
2021/04/14 09:04:53;;;;;;;12.97;4.93;;;11.40;99.90;;;;;;5011750;28;20633;-63
2021/04/14 09:07:36;;;;;;;6.77;4.30;;;11.80;99.90;;;;;;5012139;28;20200;-63
2021/04/14 09:10:06;;;;;;;10.57;3.70;;;11.60;99.90;;;;;;5011449;28;20172;-63
2021/04/14 09:12:42;;;;;;;3.57;3.10;;;11.30;99.90;;;;;;5011432;28;20226;-63
2021/04/14 09:15:11;;;;;;;7.87;4.00;;;11.90;99.90;;;;;;5011784;28;20231;-63
2021/04/14 09:17:36;;;;;;;7.67;4.80;;;12.50;99.90;;;;;;5011694;28;20207;-63
2021/04/14 09:20:20;;;;;;;10.87;6.50;;;12.50;99.90;;;;;;5011158;28;20180;-64
2021/04/14 09:23:01;;;;;;;12.53;8.00;;;12.60;99.90;;;;;;5011242;28;20625;-64
2021/04/14 09:25:41;;;;;;;8.97;7.97;;;12.50;99.90;;;;;;5011729;28;20172;-64
2021/04/14 09:28:12;;;;;;;14.60;8.17;;;12.30;99.90;;;;;;5011077;28;20262;-64
2021/04/14 09:30:50;;;;;;;9.23;8.23;;;11.60;99.90;;;;;;5011122;28;20219;-64
2021/04/14 09:33:37;;;;;;;11.03;7.57;;;11.20;99.90;;;;;;5011094;28;20180;-64
2021/04/14 09:36:06;;;;;;;9.67;6.87;;;11.10;99.90;;;;;;5011975;28;20208;-63
2021/04/14 09:38:53;;;;;;;9.97;6.97;;;11.00;99.90;;;;;;5011256;28;20200;-64
2021/04/14 09:41:25;;;;;;;16.03;8.20;;;11.00;99.90;;;;;;5013841;28;20172;-64
2021/04/14 09:44:10;;;;;;;9.90;7.53;;;10.90;99.90;;;;;;5014737;28;20654;-63
2021/04/14 09:46:56;;;;;;;10.50;6.77;;;10.40;99.90;;;;;;5015098;28;20175;-63
2021/04/14 09:49:40;;;;;;;10.90;7.13;;;10.30;99.90;;;;;;5014726;28;20183;-64
2021/04/14 09:52:48;;;;;;;8.93;6.83;;;10.50;99.90;;;;;;5014750;28;20255;-64
2021/04/14 09:55:25;;;;;;;7.33;5.47;;;10.80;99.90;;;;;;4994161;28;20223;-64
2021/04/14 09:57:51;;;;;;;7.87;5.80;;;11.10;99.90;;;;;;5004330;28;20199;-64
2021/04/14 10:00:23;;;;;;;10.73;7.00;;;11.90;99.90;;;;;;5014538;28;20168;-64
2021/04/14 10:03:00;;;;;;;9.97;7.17;;;12.40;99.90;;;;;;5014413;28;20183;-64
2021/04/14 10:05:31;;;;;;;8.93;7.10;;;12.80;99.90;;;;;;5014669;28;20650;-64
2021/04/14 10:08:02;;;;;;;13.67;7.33;;;13.30;99.90;;;;;;5014186;28;20278;-65
2021/04/14 10:10:29;;;;;;;9.93;7.73;;;13.60;99.90;;;;;;5014191;28;20180;-63
2021/04/14 10:12:56;;;;;;;12.07;8.30;;;14.20;99.90;;;;;;5014309;28;20551;-64
2021/04/14 10:15:36;;;;;;;12.50;8.57;;;14.70;99.90;;;;;;5014399;28;20208;-64
2021/04/14 10:18:04;;;;;;;11.60;8.63;;;14.50;99.90;;;;;;5013929;28;20200;-64
2021/04/14 10:20:30;;;;;;;10.93;8.13;;;14.60;99.90;;;;;;5013978;28;20183;-64
2021/04/14 10:22:56;;;;;;;9.50;7.93;;;15.60;99.90;;;;;;5013993;28;20208;-64
2021/04/14 10:25:33;;;;;;;10.47;7.67;;;16.20;99.90;;;;;;5014380;28;20665;-64
2021/04/14 10:28:13;;;;;;;11.10;8.63;;;16.80;99.90;;;;;;5014096;28;20662;-64
2021/04/14 10:30:58;;;;;;;10.27;7.73;;;16.90;99.90;;;;;;5013619;28;20176;-64
2021/04/14 10:33:25;;;;;;;10.30;7.57;;;16.60;99.90;;;;;;5014218;28;20183;-64
2021/04/14 10:35:52;;;;;;;10.50;7.27;;;16.80;99.90;;;;;;5013757;28;20305;-64
2021/04/14 10:38:32;;;;;;;8.27;6.90;;;16.90;99.20;;;;;;5014024;28;20258;-64
2021/04/14 10:40:59;;;;;;;10.23;7.17;;;16.80;98.30;;;;;;5013381;28;20188;-64
2021/04/14 10:43:28;;;;;;;9.23;7.30;;;16.60;97.50;;;;;;5013998;28;20178;-63
2021/04/14 10:46:04;;;;;;;8.00;6.67;;;16.50;97.60;;;;;;5013608;28;20172;-64
2021/04/14 10:48:35;;;;;;;8.53;6.73;;;16.20;94.20;;;;;;5013696;28;20195;-64
2021/04/14 10:51:09;;;;;;;8.23;6.90;;;15.80;95.90;;;;;;5012655;28;20187;-64
2021/04/14 10:53:37;;;;;;;8.33;7.03;;;15.90;94.00;;;;;;5013781;28;20172;-64
2021/04/14 10:56:11;;;;;;;7.93;7.13;;;15.50;94.60;;;;;;5013541;28;20258;-64
2021/04/14 10:58:36;;;;;;;7.17;6.40;;;15.20;95.70;;;;;;5013620;28;20188;-65
2021/04/14 11:01:11;;;;;;;8.87;6.87;;;15.20;94.20;;;;;;5012650;28;20637;-63
2021/04/14 11:03:37;;;;;;;8.83;7.47;;;15.20;95.30;;;;;;5014340;28;20198;-64
2021/04/14 11:06:05;;;;;;;9.73;7.40;;;15.70;96.90;;;;;;5013138;28;20181;-64
2021/04/14 11:08:33;;;;;;;9.73;7.60;;;15.80;96.00;;;;;;5013495;28;20511;-64
2021/04/14 11:11:00;;;;;;;9.43;7.27;;;15.90;94.40;;;;;;5012556;28;20539;-64
2021/04/14 11:13:29;;;;;;;10.37;7.33;;;15.90;96.20;;;;;;5013676;28;20226;-64
2021/04/14 11:15:55;;;;;;;9.50;7.70;;;16.20;92.50;;;;;;5012886;28;20353;-65
2021/04/14 11:18:36;;;;;;;10.23;8.27;;;16.00;93.10;;;;;;5013175;28;20246;-64
2021/04/14 11:21:08;;;;;;;10.00;7.90;;;15.70;93.30;;;;;;5012919;28;20176;-64
2021/04/14 11:23:39;;;;;;;8.37;7.40;;;15.70;93.40;;;;;;5013301;28;20168;-64
2021/04/14 11:26:20;;;;;;;11.37;8.40;;;15.60;93.60;;;;;;5012740;28;20192;-64
2021/04/14 11:28:49;;;;;;;11.20;8.20;;;15.50;96.50;;;;;;5012762;28;20523;-64
2021/04/14 11:31:32;;;;;;;8.70;6.50;;;15.20;95.30;;;;;;5012938;28;20691;-64
2021/04/14 11:34:00;;;;;;;8.37;6.50;;;14.70;97.40;;;;;;5012770;28;20190;-64
2021/04/14 11:36:25;;;;;;;9.20;7.10;;;13.40;98.10;;;;;;5012306;28;20204;-64
2021/04/14 11:38:59;;;;;;;9.97;7.30;;;12.30;99.90;;;;;;5012770;28;20215;-64
2021/04/14 11:41:29;;;;;;;8.67;6.97;;;11.30;99.90;;;;;;5012443;28;20175;-64
2021/04/14 11:43:55;;;;;;;10.00;7.37;;;10.60;99.90;;;;;;5012729;28;20164;-64
2021/04/14 11:46:28;;;;;;;11.33;7.70;;;10.30;99.90;;;;;;5012416;28;20195;-63
2021/04/14 11:49:08;;;;;;;8.93;6.67;;;10.10;99.90;;;;;;5012519;28;20191;-63
2021/04/14 11:51:41;;;;;;;10.50;7.30;;;10.40;99.90;;;;;;5012236;28;20175;-64
2021/04/14 11:54:15;;;;;;;9.10;7.97;;;10.50;99.90;;;;;;5012577;28;20180;-63
2021/04/14 11:56:45;;;;;;;10.80;7.37;;;10.10;99.90;;;;;;5012123;28;20220;-63
2021/04/14 11:59:27;;;;;;;9.63;7.10;;;10.10;99.90;;;;;;5012233;28;20184;-64
2021/04/14 12:02:18;;;;;;;8.67;6.77;;;10.20;99.90;;;;;;5011264;28;20168;-64
2021/04/14 12:04:58;;;;;;;10.63;7.57;;;10.80;99.90;;;;;;5011316;28;20199;-63
2021/04/14 12:07:24;;;;;;;8.20;6.03;;;11.70;99.90;;;;;;5011190;28;20342;-64
2021/04/14 12:09:50;;;;;;;8.87;7.10;;;12.40;99.90;;;;;;5011660;28;20279;-63
2021/04/14 12:12:16;;;;;;;8.10;6.90;;;12.00;99.90;;;;;;5012388;28;20701;-63
2021/04/14 12:14:42;;;;;;;10.07;7.03;;;11.90;99.90;;;;;;5011784;28;20208;-64
2021/04/14 12:17:07;;;;;;;9.03;6.07;;;11.90;99.90;;;;;;5011922;28;20560;-63
2021/04/14 12:19:33;;;;;;;12.63;7.53;;;11.90;99.90;;;;;;5012085;28;20238;-64
2021/04/14 12:21:59;;;;;;;9.67;6.70;;;11.30;99.90;;;;;;5011993;28;20434;-64
2021/04/14 12:24:26;;;;;;;10.00;8.23;;;11.00;99.90;;;;;;5011976;28;20180;-64
2021/04/14 12:26:52;;;;;;;8.57;7.07;;;11.10;99.90;;;;;;5012065;28;20176;-63
2021/04/14 12:29:18;;;;;;;8.73;7.40;;;11.50;99.90;;;;;;5012223;28;20191;-63
2021/04/14 12:31:44;;;;;;;9.40;6.83;;;11.90;99.90;;;;;;5012984;28;20179;-63
2021/04/14 12:34:11;;;;;;;8.93;7.10;;;12.50;99.90;;;;;;5011924;28;20188;-64
2021/04/14 12:36:37;;;;;;;8.93;6.67;;;13.20;99.80;;;;;;5012112;28;20208;-64
2021/04/14 12:39:05;;;;;;;9.27;6.30;;;13.80;97.70;;;;;;5011584;28;20227;-64
2021/04/14 12:41:31;;;;;;;8.47;6.70;;;14.10;96.00;;;;;;5011933;28;20172;-64
2021/04/14 12:43:57;;;;;;;7.37;6.47;;;14.30;95.80;;;;;;5011878;28;20176;-64
2021/04/14 12:46:23;;;;;;;7.67;6.43;;;14.70;95.20;;;;;;5011785;28;20238;-64
2021/04/14 12:48:50;;;;;;;9.47;6.90;;;15.00;96.30;;;;;;5012260;28;20711;-64
2021/04/14 12:51:37;;;;;;;9.23;7.00;;;15.70;96.80;;;;;;5011708;28;20172;-64
2021/04/14 12:54:14;;;;;;;8.40;6.70;;;16.70;99.00;;;;;;5011590;28;20280;-64
2021/04/14 12:56:46;;;;;;;8.60;6.73;;;17.10;97.30;;;;;;5011546;28;20407;-64
2021/04/14 12:59:17;;;;;;;8.87;6.87;;;16.70;93.40;;;;;;5011602;28;20192;-64
2021/04/14 13:01:46;;;;;;;8.57;7.07;;;16.70;94.50;;;;;;5011880;28;20183;-64
2021/04/14 13:04:16;;;;;;;9.27;6.90;;;16.70;94.70;;;;;;4992034;28;20173;-64
2021/04/14 13:06:52;;;;;;;9.37;7.30;;;16.80;94.80;;;;;;4992007;28;20235;-64
2021/04/14 13:09:21;;;;;;;8.33;7.40;;;16.20;97.80;;;;;;5010624;28;20184;-64